createdAt,value
2018-01-02T00:00:27.558Z,2.75
2018-01-02T00:02:55.141Z,2.22
2018-01-02T00:05:23.391Z,3.33
2018-01-02T00:07:51.701Z,2.37
2018-01-02T00:10:19.179Z,2.50
2018-01-02T00:12:46.662Z,2.80
2018-01-02T00:15:14.156Z,2.78
2018-01-02T00:17:41.797Z,2.85
2018-01-02T00:20:09.458Z,2.45
2018-01-02T00:22:37.203Z,2.55
2018-01-02T00:25:04.691Z,2.50
2018-01-02T00:27:32.166Z,2.72
2018-01-02T00:29:59.842Z,2.95
2018-01-02T00:32:28.378Z,4.47
2018-01-02T00:34:55.855Z,4.70
2018-01-02T00:37:23.514Z,4.50
2018-01-02T00:39:50.982Z,3.92
2018-01-02T00:42:18.607Z,4.80
2018-01-02T00:44:46.374Z,3.20
2018-01-02T00:47:14.846Z,3.53
2018-01-02T00:49:43.150Z,2.80
2018-01-02T00:52:10.653Z,2.90
2018-01-02T00:54:38.895Z,2.20
2018-01-02T00:57:06.369Z,2.20
2018-01-02T00:59:34.079Z,2.60
2018-01-02T01:02:01.590Z,2.55
2018-01-02T01:04:29.062Z,2.65
2018-01-02T01:06:56.578Z,2.53
2018-01-02T01:09:27.081Z,2.30
2018-01-02T01:11:54.755Z,2.03
2018-01-02T01:14:23.641Z,2.30
2018-01-02T01:16:51.504Z,2.30
2018-01-02T01:19:20.185Z,2.33
2018-01-02T01:21:48.160Z,2.90
2018-01-02T01:24:16.876Z,2.47
2018-01-02T01:26:44.511Z,1.90
2018-01-02T01:29:12.248Z,2.50
2018-01-02T01:31:40.042Z,2.80
2018-01-02T01:34:07.999Z,2.40
2018-01-02T01:36:36.694Z,1.90
2018-01-02T01:39:05.473Z,2.72
2018-01-02T01:41:33.246Z,2.60
2018-01-02T01:44:01.115Z,3.15
2018-01-02T01:46:29.277Z,2.22
2018-01-02T01:48:57.955Z,2.12
2018-01-02T01:51:26.041Z,1.98
2018-01-02T01:53:54.020Z,1.77
2018-01-02T01:56:21.872Z,2.65
2018-01-02T01:58:49.637Z,1.95
2018-01-02T02:01:18.126Z,2.78
2018-01-02T02:03:46.624Z,2.70
2018-01-02T02:06:14.366Z,2.28
2018-01-02T02:08:42.230Z,2.80
2018-01-02T02:11:10.736Z,3.25
2018-01-02T02:13:38.485Z,2.85
2018-01-02T02:16:06.354Z,3.05
2018-01-02T02:18:34.158Z,3.45
2018-01-02T02:21:01.868Z,3.10
2018-01-02T02:23:29.943Z,3.53
2018-01-02T02:25:57.910Z,3.60
2018-01-02T02:28:25.813Z,2.70
2018-01-02T02:30:53.582Z,2.20
2018-01-02T02:33:21.299Z,2.05
2018-01-02T02:35:49.121Z,2.75
2018-01-02T02:38:16.975Z,2.08
2018-01-02T02:40:56.819Z,2.45
2018-01-02T02:43:24.626Z,3.10
2018-01-02T02:45:52.415Z,3.20
2018-01-02T02:48:20.186Z,3.75
2018-01-02T02:50:48.892Z,2.78
2018-01-02T02:53:16.619Z,3.45
2018-01-02T02:55:44.264Z,3.05
2018-01-02T02:58:11.946Z,2.90
2018-01-02T03:00:39.586Z,3.28
2018-01-02T03:03:07.074Z,3.10
2018-01-02T03:05:34.544Z,3.42
2018-01-02T03:08:02.092Z,2.90
2018-01-02T03:10:30.438Z,2.90
2018-01-02T03:12:58.095Z,4.18
2018-01-02T03:15:25.648Z,2.80
2018-01-02T03:17:53.321Z,2.97
2018-01-02T03:20:20.809Z,3.85
2018-01-02T03:22:48.521Z,2.55
2018-01-02T03:25:17.112Z,2.75
2018-01-02T03:27:44.631Z,2.80
2018-01-02T03:30:12.951Z,2.70
2018-01-02T03:32:40.518Z,2.97
2018-01-02T03:35:08.110Z,3.95
2018-01-02T03:37:36.577Z,2.58
2018-01-02T03:40:04.937Z,2.30
2018-01-02T03:42:32.493Z,2.42
2018-01-02T03:45:00.088Z,2.30
2018-01-02T03:47:28.503Z,3.10
2018-01-02T03:49:56.110Z,3.30
2018-01-02T03:52:24.510Z,2.40
2018-01-02T03:54:52.075Z,3.05
2018-01-02T03:57:19.831Z,2.70
2018-01-02T03:59:48.208Z,2.10
2018-01-02T04:02:16.638Z,2.53
2018-01-02T04:04:44.196Z,3.45
2018-01-02T04:07:11.694Z,2.60
2018-01-02T04:09:39.274Z,2.37
2018-01-02T04:12:07.550Z,3.05
2018-01-02T04:14:35.793Z,3.30
2018-01-02T04:17:03.398Z,2.33
2018-01-02T04:19:30.913Z,2.42
2018-01-02T04:21:58.398Z,2.50
2018-01-02T04:24:26.773Z,2.62
2018-01-02T04:26:54.289Z,2.35
2018-01-02T04:29:21.766Z,2.50
2018-01-02T04:31:49.255Z,2.60
2018-01-02T04:34:17.493Z,2.50
2018-01-02T04:36:44.969Z,1.75
2018-01-02T04:39:12.848Z,2.20
2018-01-02T04:41:40.490Z,2.37
2018-01-02T04:44:08.769Z,2.20
2018-01-02T04:46:36.503Z,2.50
2018-01-02T04:49:04.261Z,2.75
2018-01-02T04:51:31.854Z,3.20
2018-01-02T04:53:59.510Z,3.20
2018-01-02T04:56:27.094Z,2.35
2018-01-02T04:58:54.734Z,2.40
2018-01-02T05:01:22.452Z,2.22
2018-01-02T05:03:49.958Z,2.45
2018-01-02T05:06:17.644Z,2.60
2018-01-02T05:08:45.279Z,1.80
2018-01-02T05:11:12.857Z,2.65
2018-01-02T05:13:41.170Z,3.00
2018-01-02T05:16:08.712Z,2.35
2018-01-02T05:18:37.041Z,3.75
2018-01-02T05:21:04.649Z,2.33
2018-01-02T05:23:32.293Z,2.50
2018-01-02T05:25:59.822Z,2.78
2018-01-02T05:28:27.576Z,2.83
2018-01-02T05:30:55.113Z,3.50
2018-01-02T05:33:23.471Z,3.37
2018-01-02T05:35:51.185Z,2.40
2018-01-02T05:38:18.782Z,2.35
2018-01-02T05:40:46.322Z,2.35
2018-01-02T05:43:13.885Z,3.33
2018-01-02T05:45:41.458Z,3.03
2018-01-02T05:48:09.131Z,2.40
2018-01-02T05:50:36.779Z,3.17
2018-01-02T05:53:05.058Z,2.90
2018-01-02T05:55:32.717Z,2.03
2018-01-02T05:58:01.239Z,2.15
2018-01-02T06:00:29.238Z,3.00
2018-01-02T06:02:56.727Z,2.00
2018-01-02T06:05:24.354Z,2.17
2018-01-02T06:07:52.217Z,2.17
2018-01-02T06:10:19.831Z,2.00
2018-01-02T06:12:47.438Z,2.35
2018-01-02T06:15:15.046Z,1.90
2018-01-02T06:17:43.382Z,1.95
2018-01-02T06:20:11.193Z,2.62
2018-01-02T06:22:38.804Z,2.50
2018-01-02T06:25:06.400Z,2.00
2018-01-02T06:27:33.928Z,1.80
2018-01-02T06:30:01.627Z,2.50
2018-01-02T06:32:30.473Z,2.20
2018-01-02T06:34:58.227Z,2.87
2018-01-02T06:37:26.719Z,2.30
2018-01-02T06:39:54.682Z,2.50
2018-01-02T06:42:22.210Z,2.33
2018-01-02T06:44:49.849Z,1.80
2018-01-02T06:47:18.482Z,1.95
2018-01-02T06:49:46.062Z,2.75
2018-01-02T06:52:13.951Z,2.72
2018-01-02T06:54:42.418Z,1.90
2018-01-02T06:57:10.308Z,2.65
2018-01-02T06:59:38.173Z,2.50
2018-01-02T07:02:05.883Z,2.10
2018-01-02T07:04:34.431Z,2.15
2018-01-02T07:07:02.030Z,1.70
2018-01-02T07:09:30.565Z,2.33
2018-01-02T07:11:58.404Z,2.33
2018-01-02T07:14:26.174Z,2.05
2018-01-02T07:16:53.873Z,2.37
2018-01-02T07:19:21.412Z,2.40
2018-01-02T07:21:48.930Z,1.98
2018-01-02T07:24:16.411Z,2.10
2018-01-02T07:26:43.898Z,2.58
2018-01-02T07:29:11.396Z,1.90
2018-01-02T07:31:38.890Z,2.45
2018-01-02T07:34:06.370Z,2.10
2018-01-02T07:36:33.866Z,2.00
2018-01-02T07:39:02.134Z,2.45
2018-01-02T07:41:29.605Z,2.10
2018-01-02T07:43:57.873Z,2.30
2018-01-02T07:46:26.146Z,2.08
2018-01-02T07:48:53.613Z,2.28
2018-01-02T07:51:23.114Z,2.50
2018-01-02T07:53:51.370Z,2.60
2018-01-02T07:56:18.902Z,2.60
2018-01-02T07:58:46.403Z,2.33
2018-01-02T08:01:13.870Z,3.12
2018-01-02T08:03:41.337Z,2.50
2018-01-02T08:06:09.594Z,2.40
2018-01-02T08:08:37.099Z,2.37
2018-01-02T08:11:04.582Z,3.55
2018-01-02T08:13:32.070Z,2.35
2018-01-02T08:15:59.578Z,2.58
2018-01-02T08:18:27.070Z,2.35
2018-01-02T08:20:54.550Z,2.33
2018-01-02T08:23:22.829Z,2.37
2018-01-02T08:25:51.081Z,3.25
2018-01-02T08:28:18.566Z,1.90
2018-01-02T08:30:46.833Z,2.70
2018-01-02T08:33:14.306Z,2.55
2018-01-02T08:35:42.550Z,3.35
2018-01-02T08:38:10.039Z,2.42
2018-01-02T08:40:38.453Z,2.72
2018-01-02T08:43:05.930Z,2.85
2018-01-02T08:45:33.429Z,2.67
2018-01-02T08:48:00.897Z,2.65
2018-01-02T08:50:29.153Z,2.80
2018-01-02T08:52:56.661Z,2.70
2018-01-02T08:55:24.143Z,2.58
2018-01-02T08:57:51.614Z,3.00
2018-01-02T09:00:19.114Z,3.08
2018-01-02T09:02:46.596Z,2.72
2018-01-02T09:05:14.069Z,2.72
2018-01-02T09:07:42.394Z,3.45
2018-01-02T09:10:10.642Z,2.53
2018-01-02T09:12:43.901Z,2.85
2018-01-02T09:15:12.156Z,3.87
2018-01-02T09:17:39.642Z,3.15
2018-01-02T09:22:41.773Z,3.87
2018-01-02T09:25:10.066Z,2.70
2018-01-02T09:27:37.561Z,2.70
2018-01-02T09:30:05.042Z,3.00
2018-01-02T09:32:32.554Z,2.62
2018-01-02T09:35:00.051Z,2.60
2018-01-02T09:37:27.549Z,2.50
2018-01-02T09:39:55.822Z,2.35
2018-01-02T09:42:24.075Z,2.70
2018-01-02T09:44:51.564Z,3.15
2018-01-02T09:47:19.828Z,3.47
2018-01-02T09:49:48.089Z,3.78
2018-01-02T09:52:15.668Z,2.85
2018-01-02T09:54:43.221Z,3.33
2018-01-02T09:57:11.482Z,3.22
2018-01-02T09:59:38.966Z,3.42
2018-01-02T10:02:07.242Z,3.85
2018-01-02T10:04:35.496Z,3.15
2018-01-02T10:07:02.978Z,3.75
2018-01-02T10:09:31.408Z,3.67
2018-01-02T10:11:59.725Z,3.33
2018-01-02T10:14:27.203Z,3.72
2018-01-02T10:16:55.466Z,3.20
2018-01-02T10:19:22.940Z,3.33
2018-01-02T10:21:51.182Z,3.87
2018-01-02T10:24:18.709Z,3.62
2018-01-02T10:26:46.188Z,4.32
2018-01-02T10:29:13.743Z,4.30
2018-01-02T10:31:42.060Z,3.60
2018-01-02T10:34:10.326Z,4.20
2018-01-02T10:36:38.029Z,3.42
2018-01-02T10:39:05.535Z,3.70
2018-01-02T10:41:33.022Z,2.95
2018-01-02T10:44:01.270Z,3.75
2018-01-02T10:46:28.934Z,4.40
2018-01-02T10:48:56.409Z,3.65
2018-01-02T10:51:24.674Z,4.00
2018-01-02T10:53:52.162Z,4.45
2018-01-02T10:56:19.650Z,4.90
2018-01-02T10:58:47.131Z,4.43
2018-01-02T11:01:20.294Z,3.50
2018-01-02T11:03:47.777Z,3.85
2018-01-02T11:06:15.271Z,3.55
2018-01-02T11:08:42.807Z,3.47
2018-01-02T11:11:15.933Z,4.12
2018-01-02T11:13:46.180Z,3.97
2018-01-02T11:16:13.654Z,3.40
2018-01-02T11:18:41.353Z,3.67
2018-01-02T11:21:08.866Z,4.30
2018-01-02T11:23:36.346Z,3.67
2018-01-02T11:26:03.830Z,4.85
2018-01-02T11:28:31.369Z,4.10
2018-01-02T11:30:58.858Z,4.32
2018-01-02T11:33:27.126Z,4.57
2018-01-02T11:35:54.758Z,5.10
2018-01-02T11:38:22.999Z,4.62
2018-01-02T11:40:50.491Z,4.30
2018-01-02T11:43:18.193Z,4.32
2018-01-02T11:45:45.763Z,4.07
2018-01-02T11:48:13.375Z,4.93
2018-01-02T11:50:41.239Z,5.20
2018-01-02T11:53:09.655Z,4.15
2018-01-02T11:55:37.929Z,3.92
2018-01-02T11:58:05.678Z,5.65
2018-01-02T12:00:33.169Z,4.53
2018-01-02T12:03:01.430Z,3.70
2018-01-02T12:05:29.710Z,4.10
2018-01-02T12:07:58.166Z,4.55
2018-01-02T12:10:25.669Z,3.25
2018-01-02T12:12:53.174Z,5.30
2018-01-02T12:15:20.663Z,4.22
2018-01-02T12:17:48.163Z,4.35
2018-01-02T12:20:15.674Z,3.83
2018-01-02T12:22:43.150Z,5.87
2018-01-02T12:25:11.395Z,4.80
2018-01-02T12:27:38.947Z,4.62
2018-01-02T12:30:06.530Z,3.83
2018-01-02T12:32:34.190Z,4.53
2018-01-02T12:35:02.482Z,4.30
2018-01-02T12:37:30.753Z,5.40
2018-01-02T12:39:59.021Z,4.57
2018-01-02T12:42:26.692Z,3.50
2018-01-02T12:44:54.946Z,4.37
2018-01-02T12:47:22.433Z,4.82
2018-01-02T12:49:50.745Z,4.82
2018-01-02T12:52:18.225Z,4.62
2018-01-02T12:54:45.717Z,5.12
2018-01-02T12:57:13.220Z,4.75
2018-01-02T12:59:40.693Z,4.20
2018-01-02T13:02:08.173Z,4.30
2018-01-02T13:04:35.685Z,3.50
2018-01-02T13:07:03.164Z,4.12
2018-01-02T13:09:30.663Z,5.85
2018-01-02T13:11:58.169Z,5.55
2018-01-02T13:14:25.977Z,5.03
2018-01-02T13:16:53.552Z,3.70
2018-01-02T13:19:21.060Z,4.50
2018-01-02T13:21:48.540Z,5.15
2018-01-02T13:24:16.301Z,4.78
2018-01-02T13:26:43.801Z,4.53
2018-01-02T13:29:12.073Z,6.15
2018-01-02T13:31:39.560Z,5.70
2018-01-02T13:34:07.049Z,5.30
2018-01-02T13:36:34.532Z,4.30
2018-01-02T13:39:02.014Z,6.65
2018-01-02T13:41:30.289Z,5.32
2018-01-02T13:43:58.537Z,4.12
2018-01-02T13:46:27.533Z,5.62
2018-01-02T13:48:55.058Z,4.68
2018-01-02T13:51:22.580Z,4.90
2018-01-02T13:53:50.033Z,4.82
2018-01-02T13:56:18.306Z,5.22
2018-01-02T13:58:45.843Z,4.70
2018-01-02T14:01:13.339Z,6.35
2018-01-02T14:03:41.651Z,6.43
2018-01-02T14:06:09.141Z,5.30
2018-01-02T14:08:36.674Z,6.00
2018-01-02T14:11:04.278Z,6.07
2018-01-02T14:13:31.744Z,5.78
2018-01-02T14:16:00.016Z,6.28
2018-01-02T14:18:28.294Z,7.40
2018-01-02T14:20:56.549Z,5.10
2018-01-02T14:23:24.035Z,6.35
2018-01-02T14:25:52.298Z,6.57
2018-01-02T14:28:19.861Z,6.85
2018-01-02T14:30:48.118Z,6.50
2018-01-02T14:33:15.706Z,7.18
2018-01-02T14:35:43.974Z,7.55
2018-01-02T14:38:11.453Z,5.68
2018-01-02T14:40:39.713Z,6.55
2018-01-02T14:43:07.986Z,5.95
2018-01-02T14:45:36.269Z,7.00
2018-01-02T14:48:04.545Z,6.32
2018-01-02T14:50:32.817Z,5.35
2018-01-02T14:53:01.098Z,7.40
2018-01-02T14:55:29.472Z,6.25
2018-01-02T14:57:56.940Z,7.75
2018-01-02T15:00:25.189Z,6.35
2018-01-02T15:02:52.728Z,6.47
2018-01-02T15:05:20.222Z,4.97
2018-01-02T15:07:47.689Z,4.60
2018-01-02T15:10:15.954Z,5.87
2018-01-02T15:12:43.456Z,5.53
2018-01-02T15:15:10.942Z,5.95
2018-01-02T15:17:39.217Z,3.97
2018-01-02T15:20:06.692Z,5.20
2018-01-02T15:22:34.171Z,5.05
2018-01-02T15:25:02.445Z,4.65
2018-01-02T15:27:30.702Z,3.90
2018-01-02T15:29:58.185Z,4.03
2018-01-02T15:32:26.469Z,4.57
2018-01-02T15:34:54.750Z,4.45
2018-01-02T15:37:23.013Z,3.45
2018-01-02T15:39:51.366Z,3.50
2018-01-02T15:42:18.846Z,4.32
2018-01-02T15:44:46.321Z,4.03
2018-01-02T15:47:14.635Z,2.62
2018-01-02T15:49:42.126Z,3.15
2018-01-02T15:52:09.621Z,2.90
2018-01-02T15:54:37.242Z,3.12
2018-01-02T15:57:04.730Z,3.58
2018-01-02T15:59:33.137Z,4.55
2018-01-02T16:02:00.659Z,5.70
2018-01-02T16:04:28.226Z,3.45
2018-01-02T16:06:56.499Z,3.17
2018-01-02T16:09:24.778Z,2.97
2018-01-02T16:11:53.048Z,3.20
2018-01-02T16:14:21.393Z,2.85
2018-01-02T16:16:48.894Z,2.90
2018-01-02T16:19:17.162Z,3.45
2018-01-02T16:21:44.642Z,4.43
2018-01-02T16:24:12.151Z,2.58
2018-01-02T16:26:39.645Z,2.85
2018-01-02T16:29:07.921Z,2.80
2018-01-02T16:31:36.410Z,3.05
2018-01-02T16:34:04.696Z,2.95
2018-01-02T16:36:32.949Z,4.05
2018-01-02T16:39:01.337Z,3.30
2018-01-02T16:41:29.623Z,3.80
2018-01-02T16:43:57.946Z,3.78
2018-01-02T16:46:25.486Z,3.50
2018-01-02T16:48:53.002Z,2.70
2018-01-02T16:51:21.484Z,3.35
2018-01-02T16:53:49.330Z,3.97
2018-01-02T16:56:16.866Z,3.60
2018-01-02T16:58:44.557Z,3.20
2018-01-02T17:01:12.137Z,4.07
2018-01-02T17:03:40.414Z,3.10
2018-01-02T17:06:08.686Z,4.18
2018-01-02T17:08:36.198Z,4.00
2018-01-02T17:11:03.682Z,4.20
2018-01-02T17:13:31.162Z,3.80
2018-01-02T17:15:58.865Z,3.47
2018-01-02T17:18:26.510Z,4.50
2018-01-02T17:20:54.035Z,3.97
2018-01-02T17:23:21.724Z,4.80
2018-01-02T17:25:50.238Z,4.30
2018-01-02T17:28:17.833Z,4.93
2018-01-02T17:30:45.373Z,4.25
2018-01-02T17:35:47.112Z,4.50
2018-01-02T17:38:14.630Z,5.70
2018-01-02T17:40:42.117Z,6.18
2018-01-02T17:43:10.366Z,5.30
2018-01-02T17:45:37.878Z,4.43
2018-01-02T17:48:05.420Z,3.78
2018-01-02T17:50:33.034Z,4.93
2018-01-02T17:53:00.544Z,3.90
2018-01-02T17:55:28.781Z,4.80
2018-01-02T17:57:56.266Z,4.40
2018-01-02T18:00:23.782Z,5.80
2018-01-02T18:02:51.493Z,4.20
2018-01-02T18:05:19.014Z,4.15
2018-01-02T18:10:20.625Z,3.95
2018-01-02T18:12:49.142Z,3.22
2018-01-02T18:15:16.615Z,3.45
2018-01-02T18:17:44.159Z,3.12
2018-01-02T18:20:11.992Z,3.28
2018-01-02T18:22:39.492Z,3.05
2018-01-02T18:25:07.316Z,4.43
2018-01-02T18:27:34.886Z,2.60
2018-01-02T18:30:02.386Z,2.33
2018-01-02T18:32:29.873Z,2.65
2018-01-02T18:34:57.758Z,2.97
2018-01-02T18:37:26.169Z,2.60
2018-01-02T18:39:53.686Z,2.65
2018-01-02T18:42:21.966Z,2.60
2018-01-02T18:44:50.209Z,2.67
2018-01-02T18:47:17.693Z,2.80
2018-01-02T18:49:46.184Z,3.08
2018-01-02T18:52:14.644Z,2.83
2018-01-02T18:54:42.286Z,3.90
2018-01-02T18:57:09.821Z,2.80
2018-01-02T18:59:37.511Z,2.65
2018-01-02T19:02:05.190Z,3.70
2018-01-02T19:04:32.786Z,3.22
2018-01-02T19:07:00.394Z,4.10
2018-01-02T19:09:28.677Z,4.20
2018-01-02T19:11:56.207Z,3.90
2018-01-02T19:14:23.742Z,4.45
2018-01-02T19:16:51.251Z,3.10
2018-01-02T19:19:19.054Z,3.20
2018-01-02T19:21:47.434Z,2.70
2018-01-02T19:24:15.766Z,3.08
2018-01-02T19:26:43.351Z,3.28
2018-01-02T19:29:10.839Z,2.80
2018-01-02T19:34:12.435Z,3.55
2018-01-02T19:36:39.962Z,2.53
2018-01-02T19:39:08.217Z,4.45
2018-01-02T19:41:35.998Z,3.33
2018-01-02T19:44:03.723Z,3.53
2018-01-02T19:46:32.093Z,3.25
2018-01-02T19:48:59.690Z,3.42
2018-01-02T19:51:27.362Z,3.60
2018-01-02T19:53:55.121Z,3.72
2018-01-02T19:56:22.693Z,3.53
2018-01-02T19:58:51.114Z,4.30
2018-01-02T20:01:18.593Z,4.43
2018-01-02T20:03:46.112Z,4.75
2018-01-02T20:06:13.610Z,5.25
2018-01-02T20:08:41.098Z,5.57
2018-01-02T20:11:09.542Z,6.30
2018-01-02T20:13:37.142Z,6.72
2018-01-02T20:16:04.653Z,7.50
2018-01-02T20:18:37.715Z,8.35
2018-01-02T20:21:05.406Z,8.15
2018-01-02T20:23:36.882Z,8.60
2018-01-02T20:26:04.366Z,9.73
2018-01-02T20:28:32.849Z,8.43
2018-01-02T20:31:00.418Z,9.25
2018-01-02T20:33:28.677Z,9.20
2018-01-02T20:35:56.333Z,10.45
2018-01-02T20:38:23.904Z,11.73
2018-01-02T20:40:52.178Z,10.95
2018-01-02T20:43:21.017Z,11.25
2018-01-02T20:45:48.513Z,12.02
2018-01-02T20:48:16.001Z,11.90
2018-01-02T20:50:44.286Z,13.05
2018-01-02T20:53:12.387Z,13.73
2018-01-02T20:55:40.039Z,13.18
2018-01-02T20:58:07.562Z,11.55
2018-01-02T21:00:36.143Z,10.98
2018-01-02T21:03:03.650Z,11.50
2018-01-02T21:05:32.128Z,12.05
2018-01-02T21:07:59.796Z,10.45
2018-01-02T21:10:27.346Z,11.73
2018-01-02T21:12:55.030Z,11.70
2018-01-02T21:15:22.813Z,9.60
2018-01-02T21:17:50.376Z,11.32
2018-01-02T21:20:17.862Z,9.95
2018-01-02T21:22:45.394Z,11.35
2018-01-02T21:25:13.037Z,12.85
2018-01-02T21:30:15.754Z,11.23
2018-01-02T21:32:43.714Z,10.07
2018-01-02T21:35:11.277Z,12.77
2018-01-02T21:37:38.785Z,13.75
2018-01-02T21:40:06.509Z,11.10
2018-01-02T21:42:34.147Z,12.48
2018-01-02T21:45:01.911Z,11.63
2018-01-02T21:47:29.578Z,12.70
2018-01-02T21:49:57.089Z,12.13
2018-01-02T21:52:24.601Z,11.32
2018-01-02T21:54:52.126Z,11.68
2018-01-02T21:57:19.622Z,10.13
2018-01-02T21:59:47.147Z,13.18
2018-01-02T22:02:14.674Z,10.93
2018-01-02T22:04:42.396Z,11.75
2018-01-02T22:07:09.966Z,12.52
2018-01-02T22:09:37.518Z,13.30
2018-01-02T22:12:05.273Z,13.07
2018-01-02T22:14:32.948Z,11.88
2018-01-02T22:17:00.546Z,12.40
2018-01-02T22:19:28.220Z,12.82
2018-01-02T22:21:55.732Z,11.68
2018-01-02T22:24:24.749Z,11.75
2018-01-02T22:26:53.190Z,13.43
2018-01-02T22:29:21.910Z,13.73
2018-01-02T22:31:50.448Z,12.27
2018-01-02T22:34:17.987Z,11.35
2018-01-02T22:36:45.774Z,11.45
2018-01-02T22:39:14.461Z,10.70
2018-01-02T22:41:42.053Z,9.55
2018-01-02T22:44:09.710Z,10.45
2018-01-02T22:46:37.301Z,9.40
2018-01-02T22:49:04.823Z,9.98
2018-01-02T22:51:32.429Z,8.15
2018-01-02T22:53:59.958Z,8.45
2018-01-02T22:56:27.563Z,8.88
2018-01-02T22:58:55.353Z,7.50
2018-01-02T23:01:23.221Z,7.03
2018-01-02T23:03:50.729Z,6.60
2018-01-02T23:06:18.343Z,5.80
2018-01-02T23:08:46.812Z,7.43
2018-01-02T23:11:14.528Z,5.95
2018-01-02T23:13:42.146Z,6.15
2018-01-02T23:16:10.517Z,5.20
2018-01-02T23:18:38.137Z,6.05
2018-01-02T23:21:05.642Z,5.22
2018-01-02T23:23:33.286Z,5.32
2018-01-02T23:26:00.961Z,5.43
2018-01-02T23:28:28.602Z,5.15
2018-01-02T23:30:56.160Z,4.25
2018-01-02T23:33:23.679Z,5.30
2018-01-02T23:35:51.166Z,4.00
2018-01-02T23:38:19.445Z,5.07
2018-01-02T23:40:46.962Z,4.47
2018-01-02T23:43:14.458Z,5.32
2018-01-02T23:45:41.986Z,3.35
2018-01-02T23:48:10.006Z,5.40
2018-01-02T23:50:37.498Z,5.25
2018-01-02T23:53:05.265Z,4.62
2018-01-02T23:55:32.981Z,4.43
2018-01-02T23:58:01.418Z,4.57
